createdAt,value
2023-04-04T00:00:30.186Z,87020.69
2023-04-04T00:02:57.538Z,87020.25
2023-04-04T00:05:24.740Z,87014.44
2023-04-04T00:07:52.130Z,87012.84
2023-04-04T00:10:19.267Z,87016.44
2023-04-04T00:12:46.676Z,87004.44
2023-04-04T00:15:13.893Z,87016.47
2023-04-04T00:17:41.048Z,87005.22
2023-04-04T00:20:08.718Z,87010.31
2023-04-04T00:22:35.895Z,87006.00
2023-04-04T00:25:03.182Z,87011.28
2023-04-04T00:27:30.534Z,87002.66
2023-04-04T00:29:57.713Z,87001.88
2023-04-04T00:32:24.926Z,87006.03
2023-04-04T00:34:53.853Z,87010.25
2023-04-04T00:37:21.486Z,87002.47
2023-04-04T00:39:48.844Z,87010.09
2023-04-04T00:42:16.030Z,87003.47
2023-04-04T00:44:43.379Z,87004.00
2023-04-04T00:47:10.562Z,87004.44
2023-04-04T00:49:37.781Z,87002.28
2023-04-04T00:52:05.467Z,87001.75
2023-04-04T00:54:32.713Z,86997.63
2023-04-04T00:57:01.585Z,86997.63
2023-04-04T00:59:29.388Z,86997.97
2023-04-04T01:01:56.853Z,86998.63
2023-04-04T01:04:24.230Z,86996.56
2023-04-04T01:06:51.698Z,86993.53
2023-04-04T01:09:19.415Z,86992.06
2023-04-04T01:11:46.939Z,86989.66
2023-04-04T01:14:14.855Z,86991.63
2023-04-04T01:16:47.961Z,86996.47
2023-04-04T01:19:40.705Z,86990.00
2023-04-04T01:22:09.497Z,86998.88
2023-04-04T01:24:38.174Z,86991.31
2023-04-04T01:27:05.322Z,87001.38
2023-04-04T01:29:32.458Z,86988.28
2023-04-04T01:32:16.130Z,86989.16
2023-04-04T01:34:57.093Z,86992.06
2023-04-04T01:38:15.812Z,86990.66
2023-04-04T01:40:55.313Z,86992.81
2023-04-04T01:43:22.536Z,86991.75
2023-04-04T01:45:50.037Z,86984.28
2023-04-04T01:48:18.354Z,86990.13
2023-04-04T01:50:54.658Z,86991.19
2023-04-04T01:53:22.116Z,86984.72
2023-04-04T01:55:49.324Z,86990.53
2023-04-04T01:58:16.612Z,86993.47
2023-04-04T02:00:43.799Z,86986.53
2023-04-04T02:03:10.928Z,86988.06
2023-04-04T02:05:38.093Z,86988.03
2023-04-04T02:08:05.612Z,86982.75
2023-04-04T02:10:33.001Z,86981.44
2023-04-04T02:13:00.202Z,86986.19
2023-04-04T02:15:28.182Z,86974.19
2023-04-04T02:17:55.493Z,86977.97
2023-04-04T02:20:22.948Z,86984.22
2023-04-04T02:22:57.138Z,86983.66
2023-04-04T02:25:25.884Z,86978.16
2023-04-04T02:27:53.429Z,86976.97
2023-04-04T02:30:20.575Z,86975.03
2023-04-04T02:32:47.858Z,86979.13
2023-04-04T02:35:15.539Z,86978.56
2023-04-04T02:37:45.732Z,86978.78
2023-04-04T02:40:13.749Z,86978.66
2023-04-04T02:42:48.386Z,86973.25
2023-04-04T02:45:15.705Z,86972.56
2023-04-04T02:47:49.746Z,86979.66
2023-04-04T02:50:17.409Z,86980.47
2023-04-04T02:52:45.024Z,86974.25
2023-04-04T02:55:12.840Z,86977.06
2023-04-04T02:57:40.456Z,86970.03
2023-04-04T03:00:08.847Z,86978.75
2023-04-04T03:02:36.556Z,86974.25
2023-04-04T03:05:04.360Z,86972.97
2023-04-04T03:07:31.960Z,86971.66
2023-04-04T03:09:59.527Z,86972.16
2023-04-04T03:12:27.129Z,86971.59
2023-04-04T03:14:54.292Z,86972.97
2023-04-04T03:17:21.562Z,86964.00
2023-04-04T03:19:48.747Z,86964.00
2023-04-04T03:22:16.176Z,86964.00
2023-04-04T03:24:48.155Z,86970.16
2023-04-04T03:27:18.608Z,86973.13
2023-04-04T03:29:45.790Z,86971.59
2023-04-04T03:32:12.972Z,86966.44
2023-04-04T03:34:40.329Z,86962.63
2023-04-04T03:37:07.508Z,86960.22
2023-04-04T03:39:34.733Z,86962.81
2023-04-04T03:42:02.175Z,86961.69
2023-04-04T03:44:29.332Z,86951.34
2023-04-04T03:46:56.494Z,86958.81
2023-04-04T03:49:23.704Z,86964.50
2023-04-04T03:51:50.979Z,86969.97
2023-04-04T03:54:18.157Z,86969.84
2023-04-04T03:56:45.447Z,86969.25
2023-04-04T03:59:12.922Z,86971.09
2023-04-04T04:01:41.185Z,86968.81
2023-04-04T04:04:08.420Z,86974.31
2023-04-04T04:06:35.675Z,86972.97
2023-04-04T04:09:03.044Z,86971.78
2023-04-04T04:11:30.928Z,86975.75
2023-04-04T04:13:58.121Z,86975.59
2023-04-04T04:16:25.249Z,86975.66
2023-04-04T04:18:52.592Z,86969.16
2023-04-04T04:21:19.785Z,86963.22
2023-04-04T04:23:47.016Z,86969.28
2023-04-04T04:26:14.519Z,86970.22
2023-04-04T04:28:41.697Z,86972.41
2023-04-04T04:31:10.351Z,86973.84
2023-04-04T04:33:37.930Z,86975.19
2023-04-04T04:36:07.635Z,86976.38
2023-04-04T04:38:34.982Z,86975.00
2023-04-04T04:41:02.152Z,86975.44
2023-04-04T04:43:29.427Z,86970.28
2023-04-04T04:45:56.861Z,86972.72
2023-04-04T04:48:24.441Z,86968.19
2023-04-04T04:50:51.971Z,86976.56
2023-04-04T04:53:19.704Z,86972.91
2023-04-04T04:55:47.209Z,86973.97
2023-04-04T04:58:15.884Z,86975.34
2023-04-04T05:00:43.662Z,86989.97
2023-04-04T05:03:11.246Z,86983.41
2023-04-04T05:05:38.908Z,86977.03
2023-04-04T05:08:06.513Z,86978.84
2023-04-04T05:10:34.217Z,86984.19
2023-04-04T05:13:01.749Z,86985.28
2023-04-04T05:15:29.352Z,86987.88
2023-04-04T05:17:56.903Z,86986.34
2023-04-04T05:20:24.642Z,86987.09
2023-04-04T05:22:52.130Z,86982.88
2023-04-04T05:25:20.038Z,86993.66
2023-04-04T05:27:48.824Z,86992.59
2023-04-04T05:30:16.861Z,86982.38
2023-04-04T05:32:47.499Z,86986.03
2023-04-04T05:35:15.280Z,86990.91
2023-04-04T05:37:42.764Z,86989.81
2023-04-04T05:40:10.591Z,86990.56
2023-04-04T05:42:38.122Z,86985.13
2023-04-04T05:45:06.256Z,86991.78
2023-04-04T05:47:34.485Z,86988.88
2023-04-04T05:50:02.031Z,86983.88
2023-04-04T05:52:29.162Z,86988.41
2023-04-04T05:54:56.246Z,86989.31
2023-04-04T05:57:24.298Z,86987.94
2023-04-04T05:59:52.661Z,86982.75
2023-04-04T06:02:19.875Z,86984.53
2023-04-04T06:04:47.197Z,86981.06
2023-04-04T06:07:14.505Z,86987.72
2023-04-04T06:09:42.629Z,86975.44
2023-04-04T06:12:10.711Z,86976.81
2023-04-04T06:14:38.209Z,86978.31
2023-04-04T06:17:06.423Z,86978.88
2023-04-04T06:19:37.182Z,86979.56
2023-04-04T06:22:04.366Z,86973.16
2023-04-04T06:24:31.570Z,86974.38
2023-04-04T06:26:58.733Z,86973.06
2023-04-04T06:29:26.310Z,86970.22
2023-04-04T06:31:53.843Z,86969.84
2023-04-04T06:34:24.408Z,86966.50
2023-04-04T06:36:52.033Z,86970.13
2023-04-04T06:39:19.544Z,86959.25
2023-04-04T06:41:47.053Z,86964.47
2023-04-04T06:44:14.672Z,86959.19
2023-04-04T06:46:42.308Z,86951.31
2023-04-04T06:49:09.946Z,86954.06
2023-04-04T06:51:37.563Z,86957.13
2023-04-04T06:54:05.126Z,86951.69
2023-04-04T06:56:33.046Z,86953.03
2023-04-04T06:59:00.625Z,86944.28
2023-04-04T07:01:28.255Z,86951.28
2023-04-04T07:03:55.896Z,86946.13
2023-04-04T07:06:25.773Z,86945.03
2023-04-04T07:08:55.318Z,86948.81
2023-04-04T07:11:23.082Z,86938.03
2023-04-04T07:13:50.746Z,86935.09
2023-04-04T07:16:18.435Z,86937.81
2023-04-04T07:18:45.982Z,86938.13
2023-04-04T07:21:13.637Z,86935.09
2023-04-04T07:23:41.148Z,86935.41
2023-04-04T07:26:08.680Z,86938.44
2023-04-04T07:28:36.288Z,86931.16
2023-04-04T07:31:04.008Z,86925.09
2023-04-04T07:33:31.268Z,86933.06
2023-04-04T07:36:00.959Z,86934.25
2023-04-04T07:38:28.083Z,86936.41
2023-04-04T07:40:55.553Z,86931.09
2023-04-04T07:43:22.763Z,86926.50
2023-04-04T07:45:50.020Z,86929.78
2023-04-04T07:48:17.870Z,86925.25
2023-04-04T07:50:45.384Z,86925.03
2023-04-04T07:53:12.969Z,86931.28
2023-04-04T07:55:40.459Z,86921.84
2023-04-04T07:58:07.992Z,86925.44
2023-04-04T08:00:35.901Z,86924.88
2023-04-04T08:03:03.519Z,86920.03
2023-04-04T08:05:30.821Z,86921.09
2023-04-04T08:07:58.551Z,86917.84
2023-04-04T08:10:25.656Z,86912.94
2023-04-04T08:12:52.941Z,86923.31
2023-04-04T08:15:20.098Z,86915.28
2023-04-04T08:17:47.287Z,86911.63
2023-04-04T08:20:14.528Z,86911.88
2023-04-04T08:22:43.026Z,86912.16
2023-04-04T08:25:10.837Z,86910.25
2023-04-04T08:27:40.856Z,86910.75
2023-04-04T08:30:08.831Z,86913.03
2023-04-04T08:32:36.313Z,86900.94
2023-04-04T08:35:04.284Z,86898.28
2023-04-04T08:37:31.622Z,86903.66
2023-04-04T08:39:59.259Z,86893.31
2023-04-04T08:42:30.270Z,86899.47
2023-04-04T08:45:02.855Z,86898.09
2023-04-04T08:47:35.759Z,86898.69
2023-04-04T08:50:07.944Z,86894.00
2023-04-04T08:52:37.104Z,86882.91
2023-04-04T08:55:09.131Z,86898.19
2023-04-04T08:57:36.332Z,86891.75
2023-04-04T09:00:03.815Z,86893.91
2023-04-04T09:02:50.359Z,86898.56
2023-04-04T09:05:18.505Z,86890.44
2023-04-04T09:07:46.447Z,86883.91
2023-04-04T09:10:13.640Z,86881.25
2023-04-04T09:12:46.785Z,86886.84
2023-04-04T09:15:15.245Z,86886.22
2023-04-04T09:17:42.564Z,86882.69
2023-04-04T09:20:38.882Z,86877.75
2023-04-04T09:23:12.667Z,86886.47
2023-04-04T09:28:24.373Z,86885.78
2023-04-04T09:30:52.928Z,86877.53
2023-04-04T09:33:26.313Z,86868.69
2023-04-04T09:36:08.264Z,86872.34
2023-04-04T09:38:40.200Z,86877.06
2023-04-04T09:41:08.651Z,86877.31
2023-04-04T09:43:36.027Z,86864.34
2023-04-04T09:46:04.276Z,86873.56
2023-04-04T09:48:33.953Z,86869.66
2023-04-04T09:51:06.539Z,86876.19
2023-04-04T09:53:39.273Z,86866.63
2023-04-04T09:56:07.440Z,86864.94
2023-04-04T09:58:35.304Z,86867.66
2023-04-04T10:01:08.181Z,86874.50
2023-04-04T10:03:37.852Z,86869.84
2023-04-04T10:06:07.903Z,86866.69
2023-04-04T10:08:39.450Z,86869.03
2023-04-04T10:11:12.006Z,86873.63
2023-04-04T10:13:41.121Z,86870.75
2023-04-04T10:16:08.977Z,86872.78
2023-04-04T10:18:37.373Z,86869.22
2023-04-04T10:23:37.900Z,86873.16
2023-04-04T10:26:05.122Z,86867.25
2023-04-04T10:28:33.552Z,86866.41
2023-04-04T10:31:27.026Z,86863.78
2023-04-04T10:34:20.491Z,86863.75
2023-04-04T10:36:58.135Z,86863.28
2023-04-04T10:39:43.567Z,86862.66
2023-04-04T10:42:15.393Z,86855.13
2023-04-04T10:44:45.391Z,86848.22
2023-04-04T10:47:19.237Z,86857.34
2023-04-04T10:49:48.437Z,86846.03
2023-04-04T10:52:20.816Z,86845.81
2023-04-04T10:54:54.523Z,86835.28
2023-04-04T10:57:22.692Z,86839.00
2023-04-04T11:00:11.396Z,86833.13
2023-04-04T11:02:53.369Z,86840.22
2023-04-04T11:05:35.995Z,86838.78
2023-04-04T11:08:09.606Z,86832.31
2023-04-04T11:10:39.542Z,86832.00
2023-04-04T11:13:33.092Z,86835.06
2023-04-04T11:16:18.173Z,86833.63
2023-04-04T11:18:48.180Z,86836.72
2023-04-04T11:21:18.339Z,86830.31
2023-04-04T11:23:48.788Z,86824.28
2023-04-04T11:26:26.006Z,86822.03
2023-04-04T11:29:00.440Z,86819.88
2023-04-04T11:31:39.050Z,86814.94
2023-04-04T11:34:11.826Z,86807.66
2023-04-04T11:36:38.998Z,86813.97
2023-04-04T11:39:29.830Z,86823.91
2023-04-04T11:42:14.079Z,86815.91
2023-04-04T11:45:02.962Z,86811.03
2023-04-04T11:47:31.158Z,86806.72
2023-04-04T11:50:08.084Z,86799.81
2023-04-04T11:52:35.421Z,86804.41
2023-04-04T11:55:02.739Z,86797.50
2023-04-04T11:57:30.647Z,86801.59
2023-04-04T11:59:58.679Z,86801.91
2023-04-04T12:02:27.693Z,86800.88
2023-04-04T12:04:56.062Z,86792.59
2023-04-04T12:07:24.794Z,86794.94
2023-04-04T12:09:52.690Z,86798.19
2023-04-04T12:12:20.127Z,86787.63
2023-04-04T12:14:47.438Z,86793.06
2023-04-04T12:17:16.612Z,86786.00
2023-04-04T12:19:44.296Z,86789.56
2023-04-04T12:22:11.473Z,86798.50
2023-04-04T12:24:39.001Z,86792.03
2023-04-04T12:27:07.427Z,86801.16
2023-04-04T12:29:36.316Z,86789.63
2023-04-04T12:32:05.957Z,86786.81
2023-04-04T12:34:35.622Z,86778.56
2023-04-04T12:37:04.426Z,86779.81
2023-04-04T12:39:31.914Z,86785.44
2023-04-04T12:42:02.636Z,86784.47
2023-04-04T12:44:33.649Z,86782.81
2023-04-04T12:47:07.492Z,86790.34
2023-04-04T12:49:44.801Z,86781.25
2023-04-04T12:52:30.382Z,86772.94
2023-04-04T12:55:09.905Z,86780.81
2023-04-04T12:57:39.980Z,86784.56
2023-04-04T13:00:09.599Z,86781.06
2023-04-04T13:02:39.732Z,86781.72
2023-04-04T13:05:08.933Z,86776.13
2023-04-04T13:07:39.946Z,86771.34
2023-04-04T13:10:08.343Z,86771.78
2023-04-04T13:12:59.663Z,86768.75
2023-04-04T13:15:52.192Z,86766.06
2023-04-04T13:18:25.578Z,86757.72
2023-04-04T13:20:55.137Z,86769.03
2023-04-04T13:23:22.902Z,86768.25
2023-04-04T13:25:50.715Z,86772.31
2023-04-04T13:28:18.094Z,86762.19
2023-04-04T13:30:45.324Z,86765.72
2023-04-04T13:33:12.876Z,86766.59
2023-04-04T13:35:43.014Z,86763.03
2023-04-04T13:38:11.270Z,86767.34
2023-04-04T13:40:38.754Z,86773.97
2023-04-04T13:43:05.927Z,86764.00
2023-04-04T13:45:34.530Z,86761.19
2023-04-04T13:48:02.883Z,86755.75
2023-04-04T13:50:33.024Z,86767.91
2023-04-04T13:53:00.239Z,86765.94
2023-04-04T13:55:28.396Z,86757.53
2023-04-04T13:57:55.574Z,86766.16
2023-04-04T14:00:23.702Z,86760.63
2023-04-04T14:02:51.098Z,86761.38
2023-04-04T14:05:19.378Z,86755.13
2023-04-04T14:07:46.928Z,86758.53
2023-04-04T14:10:14.388Z,86751.91
2023-04-04T14:12:41.871Z,86756.34
2023-04-04T14:15:09.983Z,86758.94
2023-04-04T14:17:37.483Z,86757.53
2023-04-04T14:20:05.831Z,86762.41
2023-04-04T14:22:33.235Z,86755.69
2023-04-04T14:25:00.481Z,86754.22
2023-04-04T14:27:27.751Z,86763.25
2023-04-04T14:29:54.900Z,86761.34
2023-04-04T14:32:22.049Z,86758.72
2023-04-04T14:34:49.290Z,86756.75
2023-04-04T14:37:16.480Z,86760.47
2023-04-04T14:39:43.783Z,86752.66
2023-04-04T14:42:11.125Z,86756.72
2023-04-04T14:44:38.331Z,86758.16
2023-04-04T14:47:05.721Z,86751.47
2023-04-04T14:49:33.166Z,86755.97
2023-04-04T14:52:00.351Z,86757.06
2023-04-04T14:54:27.510Z,86762.69
2023-04-04T14:56:54.675Z,86768.13
2023-04-04T14:59:21.855Z,86771.75
2023-04-04T15:01:49.636Z,86770.56
2023-04-04T15:04:16.928Z,86765.81
2023-04-04T15:06:44.287Z,86768.66
2023-04-04T15:09:11.697Z,86771.88
2023-04-04T15:11:39.789Z,86768.38
2023-04-04T15:14:07.148Z,86779.03
2023-04-04T15:16:34.378Z,86767.56
2023-04-04T15:19:02.116Z,86771.09
2023-04-04T15:21:29.307Z,86778.41
2023-04-04T15:23:56.502Z,86781.06
2023-04-04T15:26:23.935Z,86777.69
2023-04-04T15:28:51.069Z,86768.09
2023-04-04T15:31:18.336Z,86770.66
2023-04-04T15:33:45.489Z,86776.63
2023-04-04T15:36:12.694Z,86778.97
2023-04-04T15:38:40.393Z,86777.69
2023-04-04T15:41:10.420Z,86778.53
2023-04-04T15:43:38.259Z,86780.44
2023-04-04T15:46:05.856Z,86781.47
2023-04-04T15:48:33.081Z,86785.09
2023-04-04T15:51:02.350Z,86779.44
2023-04-04T15:53:31.341Z,86777.28
2023-04-04T15:55:59.861Z,86773.34
2023-04-04T15:58:27.026Z,86779.78
2023-04-04T16:00:58.314Z,86784.50
2023-04-04T16:03:25.682Z,86785.63
2023-04-04T16:05:53.090Z,86784.59
2023-04-04T16:08:20.345Z,86790.16
2023-04-04T16:10:47.694Z,86794.00
2023-04-04T16:13:14.966Z,86796.47
2023-04-04T16:15:42.184Z,86794.06
2023-04-04T16:18:09.590Z,86800.00
2023-04-04T16:20:36.825Z,86793.06
2023-04-04T16:23:04.423Z,86806.19
2023-04-04T16:25:31.959Z,86805.47
2023-04-04T16:27:59.067Z,86805.41
2023-04-04T16:30:26.422Z,86812.81
2023-04-04T16:32:53.593Z,86815.09
2023-04-04T16:35:20.851Z,86815.81
2023-04-04T16:37:48.173Z,86815.06
2023-04-04T16:40:15.707Z,86822.13
2023-04-04T16:42:43.000Z,86825.16
2023-04-04T16:45:11.147Z,86823.56
2023-04-04T16:47:38.464Z,86828.09
2023-04-04T16:50:07.462Z,86821.56
2023-04-04T16:52:34.765Z,86827.81
2023-04-04T16:55:01.978Z,86837.75
2023-04-04T16:57:29.107Z,86840.53
2023-04-04T16:59:56.456Z,86839.56
2023-04-04T17:02:23.727Z,86843.00
2023-04-04T17:04:51.398Z,86850.19
2023-04-04T17:07:20.320Z,86850.59
2023-04-04T17:09:48.746Z,86855.88
2023-04-04T17:12:16.190Z,86850.59
2023-04-04T17:14:43.857Z,86848.72
2023-04-04T17:17:11.380Z,86846.88
2023-04-04T17:19:41.288Z,86862.63
2023-04-04T17:22:08.495Z,86865.22
2023-04-04T17:24:35.630Z,86872.66
2023-04-04T17:27:03.199Z,86870.78
2023-04-04T17:29:30.363Z,86868.06
2023-04-04T17:31:58.088Z,86866.56
2023-04-04T17:34:26.368Z,86870.25
2023-04-04T17:36:54.252Z,86882.63
2023-04-04T17:39:21.888Z,86881.75
2023-04-04T17:41:49.501Z,86882.81
2023-04-04T17:44:20.336Z,86893.25
2023-04-04T17:46:47.662Z,86895.47
2023-04-04T17:49:15.033Z,86897.59
2023-04-04T17:51:42.181Z,86907.63
2023-04-04T17:54:09.302Z,86903.41
2023-04-04T17:56:36.470Z,86902.59
2023-04-04T17:59:03.687Z,86910.41
2023-04-04T18:01:30.958Z,86915.19
2023-04-04T18:03:58.411Z,86918.41
2023-04-04T18:06:25.701Z,86921.66
2023-04-04T18:08:52.821Z,86927.03
2023-04-04T18:11:20.277Z,86932.28
2023-04-04T18:13:47.529Z,86936.34
2023-04-04T18:16:14.679Z,86938.50
2023-04-04T18:18:41.871Z,86937.69
2023-04-04T18:21:09.198Z,86946.94
2023-04-04T18:23:36.678Z,86947.28
2023-04-04T18:26:07.071Z,86951.31
2023-04-04T18:28:34.534Z,86953.53
2023-04-04T18:31:01.809Z,86953.44
2023-04-04T18:33:29.246Z,86970.25
2023-04-04T18:35:56.754Z,86966.28
2023-04-04T18:38:24.182Z,86977.00
2023-04-04T18:40:52.430Z,86977.81
2023-04-04T18:43:20.434Z,86981.13
2023-04-04T18:45:47.900Z,86981.69
2023-04-04T18:48:15.107Z,86981.56
2023-04-04T18:50:42.389Z,86983.72
2023-04-04T18:53:10.015Z,86990.06
2023-04-04T18:55:37.300Z,86991.75
2023-04-04T18:58:04.387Z,86996.50
2023-04-04T19:00:31.716Z,87001.34
2023-04-04T19:02:58.975Z,87000.91
2023-04-04T19:05:31.900Z,87004.16
2023-04-04T19:08:01.455Z,87005.19
2023-04-04T19:10:29.847Z,87011.56
2023-04-04T19:12:56.967Z,87010.63
2023-04-04T19:15:24.129Z,87019.88
2023-04-04T19:17:51.369Z,87011.66
2023-04-04T19:20:19.056Z,87011.66
2023-04-04T19:22:46.798Z,87019.75
2023-04-04T19:25:14.339Z,87023.81
2023-04-04T19:27:41.608Z,87033.50
2023-04-04T19:30:41.176Z,87023.06
2023-04-04T19:33:21.020Z,87029.22
2023-04-04T19:35:56.556Z,87029.09
2023-04-04T19:38:28.642Z,87029.34
2023-04-04T19:41:08.478Z,87027.59
2023-04-04T19:43:37.464Z,87029.66
2023-04-04T19:46:26.499Z,87036.22
2023-04-04T19:48:58.227Z,87036.50
2023-04-04T19:51:25.290Z,87037.59
2023-04-04T19:53:56.781Z,87034.44
2023-04-04T19:56:26.716Z,87029.22
2023-04-04T19:58:54.672Z,87026.81
2023-04-04T20:01:30.514Z,87037.31
2023-04-04T20:04:09.778Z,87034.28
2023-04-04T20:06:38.320Z,87042.38
2023-04-04T20:09:25.384Z,87037.50
2023-04-04T20:11:53.061Z,87040.03
2023-04-04T20:14:21.172Z,87045.84
2023-04-04T20:16:50.488Z,87044.59
2023-04-04T20:19:20.866Z,87044.09
2023-04-04T20:21:48.698Z,87047.03
2023-04-04T20:24:19.085Z,87048.22
2023-04-04T20:26:55.797Z,87056.69
2023-04-04T20:29:46.622Z,87050.25
2023-04-04T20:32:14.854Z,87055.72
2023-04-04T20:34:47.161Z,87051.50
2023-04-04T20:37:25.905Z,87065.06
2023-04-04T20:39:58.991Z,87063.53
2023-04-04T20:42:39.246Z,87077.94
2023-04-04T20:45:09.370Z,87074.63
2023-04-04T20:47:56.003Z,87073.47
2023-04-04T20:50:23.386Z,87073.03
2023-04-04T20:52:52.435Z,87072.03
2023-04-04T20:55:21.758Z,87070.84
2023-04-04T20:57:50.996Z,87065.97
2023-04-04T21:00:30.664Z,87072.13
2023-04-04T21:03:30.300Z,87074.13
2023-04-04T21:06:15.143Z,87079.03
2023-04-04T21:08:51.042Z,87070.31
2023-04-04T21:11:28.290Z,87073.81
2023-04-04T21:13:56.718Z,87074.47
2023-04-04T21:16:27.741Z,87073.41
2023-04-04T21:19:00.061Z,87087.97
2023-04-04T21:21:28.159Z,87082.00
2023-04-04T21:23:58.779Z,87085.25
2023-04-04T21:26:31.703Z,87080.63
2023-04-04T21:29:09.907Z,87081.81
2023-04-04T21:31:41.666Z,87083.22
2023-04-04T21:34:20.140Z,87086.09
2023-04-04T21:36:49.536Z,87085.63
2023-04-04T21:39:26.489Z,87094.88
2023-04-04T21:41:57.609Z,87088.72
2023-04-04T21:44:26.036Z,87091.97
2023-04-04T21:46:53.995Z,87083.56
2023-04-04T21:49:21.904Z,87087.13
2023-04-04T21:51:49.564Z,87077.31
2023-04-04T21:54:16.803Z,87088.81
2023-04-04T21:56:43.890Z,87078.22
2023-04-04T21:59:11.049Z,87086.00
2023-04-04T22:01:39.257Z,87081.78
2023-04-04T22:04:06.527Z,87083.50
2023-04-04T22:06:33.798Z,87083.00
2023-04-04T22:09:01.406Z,87080.41
2023-04-04T22:11:29.528Z,87073.91
2023-04-04T22:13:56.864Z,87077.69
2023-04-04T22:16:24.067Z,87080.19
2023-04-04T22:18:51.172Z,87078.34
2023-04-04T22:21:21.817Z,87087.13
2023-04-04T22:23:49.047Z,87076.53
2023-04-04T22:26:16.209Z,87075.34
2023-04-04T22:28:43.907Z,87082.19
2023-04-04T22:31:11.649Z,87075.56
2023-04-04T22:33:38.828Z,87079.78
2023-04-04T22:36:06.643Z,87073.28
2023-04-04T22:38:34.171Z,87086.06
2023-04-04T22:41:01.347Z,87081.72
2023-04-04T22:43:28.581Z,87084.22
2023-04-04T22:45:55.790Z,87079.91
2023-04-04T22:48:23.141Z,87082.81
2023-04-04T22:50:53.520Z,87083.69
2023-04-04T22:53:20.651Z,87075.03
2023-04-04T22:55:48.493Z,87079.03
2023-04-04T22:58:15.793Z,87077.72
2023-04-04T23:00:43.291Z,87080.66
2023-04-04T23:03:10.932Z,87077.19
2023-04-04T23:05:38.085Z,87076.09
2023-04-04T23:08:05.592Z,87076.53
2023-04-04T23:10:32.867Z,87080.19
2023-04-04T23:13:00.055Z,87080.38
2023-04-04T23:15:27.365Z,87078.56
2023-04-04T23:17:54.964Z,87077.69
2023-04-04T23:20:22.152Z,87080.19
2023-04-04T23:22:49.326Z,87087.06
2023-04-04T23:25:16.548Z,87079.81
2023-04-04T23:27:43.964Z,87076.91
2023-04-04T23:30:11.727Z,87078.97
2023-04-04T23:32:38.895Z,87082.72
2023-04-04T23:35:06.480Z,87075.13
2023-04-04T23:37:33.794Z,87084.44
2023-04-04T23:40:00.931Z,87091.03
2023-04-04T23:42:28.101Z,87088.31
2023-04-04T23:44:55.474Z,87088.50
2023-04-04T23:47:22.619Z,87089.66
2023-04-04T23:49:49.845Z,87084.38
2023-04-04T23:52:17.159Z,87091.69
2023-04-04T23:54:44.290Z,87093.41
2023-04-04T23:57:11.516Z,87094.25
2023-04-04T23:59:38.716Z,87084.69
